createdAt,value
2019-04-22T00:00:34.584Z,13.37
2019-04-22T00:03:03.058Z,13.26
2019-04-22T00:05:53.176Z,13.33
2019-04-22T00:08:16.859Z,13.17
2019-04-22T00:10:54.021Z,13.04
2019-04-22T00:13:27.614Z,13.06
2019-04-22T00:15:41.806Z,12.93
2019-04-22T00:18:22.276Z,12.88
2019-04-22T00:20:54.438Z,12.88
2019-04-22T00:23:12.842Z,12.84
2019-04-22T00:25:48.318Z,12.67
2019-04-22T00:28:14.626Z,12.34
2019-04-22T00:30:44.915Z,12.13
2019-04-22T00:33:24.931Z,12.01
2019-04-22T00:35:54.544Z,12.09
2019-04-22T00:38:23.445Z,12.12
2019-04-22T00:40:53.370Z,12.10
2019-04-22T00:43:24.329Z,12.11
2019-04-22T00:45:49.208Z,12.04
2019-04-22T00:51:01.627Z,12.10
2019-04-22T00:53:31.303Z,12.15
2019-04-22T00:56:05.549Z,12.09
2019-04-22T00:58:31.194Z,12.14
2019-04-22T01:01:06.269Z,11.99
2019-04-22T01:03:37.025Z,12.02
2019-04-22T01:06:03.488Z,12.07
2019-04-22T01:08:43.187Z,12.10
2019-04-22T01:11:03.242Z,12.10
2019-04-22T01:13:34.363Z,12.10
2019-04-22T01:16:09.334Z,11.98
2019-04-22T01:18:29.843Z,11.96
2019-04-22T01:23:28.200Z,12.04
2019-04-22T01:25:55.272Z,12.05
2019-04-22T01:28:23.816Z,12.02
2019-04-22T01:30:46.902Z,12.04
2019-04-22T01:33:16.315Z,12.03
2019-04-22T01:35:58.240Z,12.02
2019-04-22T01:38:23.627Z,12.00
2019-04-22T01:41:07.236Z,12.02
2019-04-22T01:43:42.126Z,12.07
2019-04-22T01:46:02.612Z,12.11
2019-04-22T01:48:36.608Z,12.18
2019-04-22T01:50:54.755Z,12.19
2019-04-22T01:53:36.439Z,12.20
2019-04-22T01:55:59.818Z,12.18
2019-04-22T01:58:24.878Z,12.23
2019-04-22T02:01:13.594Z,12.19
2019-04-22T02:03:25.722Z,12.11
2019-04-22T02:05:59.237Z,12.07
2019-04-22T02:08:31.446Z,11.92
2019-04-22T02:10:54.860Z,11.84
2019-04-22T02:13:23.819Z,11.75
2019-04-22T02:15:52.513Z,11.72
2019-04-22T02:18:23.000Z,11.68
2019-04-22T02:20:50.331Z,11.75
2019-04-22T02:28:42.542Z,11.67
2019-04-22T02:41:21.385Z,11.52
2019-04-22T02:43:43.979Z,11.41
2019-04-22T02:46:16.603Z,11.40
2019-04-22T02:48:45.946Z,11.33
2019-04-22T02:51:06.176Z,11.34
2019-04-22T02:53:59.327Z,11.23
2019-04-22T02:56:04.938Z,11.14
2019-04-22T02:58:41.170Z,11.10
2019-04-22T03:01:06.011Z,11.13
2019-04-22T03:03:45.850Z,11.11
2019-04-22T03:06:19.333Z,11.07
2019-04-22T03:08:23.962Z,10.99
2019-04-22T03:13:32.447Z,10.92
2019-04-22T03:16:01.142Z,10.79
2019-04-22T03:18:35.845Z,10.81
2019-04-22T03:21:00.115Z,10.82
2019-04-22T03:23:42.864Z,10.84
2019-04-22T03:28:30.985Z,10.69
2019-04-22T03:32:16.728Z,10.71
2019-04-22T03:42:00.584Z,10.75
2019-04-22T03:44:26.129Z,10.74
2019-04-22T03:46:53.362Z,10.65
2019-04-22T03:49:29.056Z,10.63
2019-04-22T03:51:56.732Z,10.51
2019-04-22T03:54:35.828Z,10.56
2019-04-22T03:57:18.376Z,10.48
2019-04-22T03:59:28.663Z,10.47
2019-04-22T04:04:15.462Z,10.39
2019-04-22T04:06:50.188Z,10.30
2019-04-22T04:09:16.872Z,10.25
2019-04-22T04:11:55.816Z,10.31
2019-04-22T04:14:27.028Z,10.36
2019-04-22T04:16:50.447Z,10.39
2019-04-22T04:19:13.828Z,10.39
2019-04-22T04:21:41.383Z,10.38
2019-04-22T04:24:29.125Z,10.37
2019-04-22T04:41:52.115Z,10.69
2019-04-22T04:44:15.182Z,10.72
2019-04-22T04:46:47.339Z,10.83
2019-04-22T04:54:23.423Z,11.14
2019-04-22T04:56:40.367Z,11.26
2019-04-22T04:59:17.301Z,11.42
2019-04-22T05:01:35.170Z,11.58
2019-04-22T05:16:54.661Z,12.30
2019-04-22T05:22:05.142Z,12.29
2019-04-22T05:24:36.680Z,12.46
2019-04-22T05:27:15.059Z,12.66
2019-04-22T05:29:54.196Z,12.77
2019-04-22T05:32:01.458Z,12.84
2019-04-22T05:34:35.078Z,12.81
2019-04-22T05:37:00.949Z,12.82
2019-04-22T05:39:31.075Z,12.90
2019-04-22T05:42:03.671Z,13.10
2019-04-22T05:44:29.559Z,13.28
2019-04-22T05:46:52.815Z,13.47
2019-04-22T05:51:55.444Z,13.60
2019-04-22T05:54:27.638Z,13.62
2019-04-22T05:56:47.186Z,13.94
2019-04-22T05:59:25.002Z,14.05
2019-04-22T06:02:00.735Z,14.18
2019-04-22T06:04:25.685Z,14.22
2019-04-22T06:06:51.788Z,14.34
2019-04-22T06:09:27.469Z,14.57
2019-04-22T06:11:47.670Z,14.73
2019-04-22T06:14:20.437Z,14.99
2019-04-22T06:16:59.143Z,15.07
2019-04-22T06:19:38.536Z,15.19
2019-04-22T06:22:16.951Z,15.52
2019-04-22T06:24:27.868Z,15.95
2019-04-22T06:27:02.325Z,15.79
2019-04-22T06:29:19.597Z,15.99
2019-04-22T06:32:10.222Z,16.43
2019-04-22T06:34:22.375Z,16.35
2019-04-22T06:36:53.882Z,16.59
2019-04-22T06:39:21.179Z,16.46
2019-04-22T06:41:47.660Z,16.95
2019-04-22T06:44:22.727Z,17.23
2019-04-22T06:46:47.699Z,17.34
2019-04-22T06:49:18.726Z,17.52
2019-04-22T06:51:46.807Z,17.69
2019-04-22T06:54:14.367Z,18.19
2019-04-22T06:56:42.737Z,18.38
2019-04-22T06:59:14.835Z,18.66
2019-04-22T07:01:45.829Z,18.60
2019-04-22T07:04:25.103Z,18.60
2019-04-22T07:06:43.738Z,18.62
2019-04-22T07:11:43.330Z,18.49
2019-04-22T07:14:09.384Z,19.27
2019-04-22T07:16:43.278Z,19.32
2019-04-22T07:19:13.867Z,19.26
2019-04-22T07:21:44.093Z,19.23
2019-04-22T07:24:28.217Z,19.42
2019-04-22T07:26:44.856Z,19.56
2019-04-22T07:29:12.119Z,19.41
2019-04-22T07:31:44.663Z,19.33
2019-04-22T07:42:10.448Z,19.89
2019-04-22T07:44:45.073Z,20.17
2019-04-22T07:52:10.026Z,20.70
2019-04-22T07:54:49.296Z,21.07
2019-04-22T07:59:50.077Z,21.52
2019-04-22T08:02:31.797Z,21.36
2019-04-22T08:05:07.317Z,21.78
2019-04-22T08:07:30.189Z,21.95
2019-04-22T08:12:28.153Z,22.24
2019-04-22T08:14:53.801Z,22.44
2019-04-22T08:19:57.413Z,22.35
2019-04-22T08:22:25.902Z,23.08
2019-04-22T08:27:22.472Z,23.11
2019-04-22T08:30:09.448Z,22.72
2019-04-22T08:32:27.976Z,22.31
2019-04-22T08:34:56.466Z,22.68
2019-04-22T08:39:55.063Z,22.38
2019-04-22T08:42:35.433Z,22.52
2019-04-22T08:47:31.114Z,23.39
2019-04-22T08:50:04.656Z,23.70
2019-04-22T08:52:20.780Z,23.37
2019-04-22T08:54:55.399Z,23.77
2019-04-22T08:57:26.020Z,23.92
2019-04-22T08:59:50.126Z,23.90
2019-04-22T09:02:25.966Z,23.26
2019-04-22T09:04:53.418Z,23.15
2019-04-22T09:07:30.259Z,23.12
2019-04-22T09:09:53.957Z,23.52
2019-04-22T09:14:55.345Z,23.38
2019-04-22T09:17:36.258Z,23.31
2019-04-22T09:20:11.323Z,23.39
2019-04-22T09:22:36.278Z,23.49
2019-04-22T09:25:06.724Z,23.32
2019-04-22T09:27:48.388Z,23.25
2019-04-22T09:30:21.787Z,22.98
2019-04-22T09:32:56.293Z,23.24
2019-04-22T09:35:15.873Z,23.21
2019-04-22T09:37:50.399Z,23.64
2019-04-22T09:40:18.392Z,23.81
2019-04-22T09:42:50.441Z,24.20
2019-04-22T09:45:43.643Z,24.01
2019-04-22T09:48:16.701Z,24.19
2019-04-22T09:50:43.142Z,25.24
2019-04-22T09:53:08.446Z,26.13
2019-04-22T09:55:37.472Z,26.57
2019-04-22T09:58:09.512Z,26.05
2019-04-22T10:00:43.004Z,26.25
2019-04-22T10:03:20.563Z,26.14
2019-04-22T10:05:48.073Z,26.47
2019-04-22T10:08:18.739Z,26.46
2019-04-22T10:10:49.001Z,26.00
2019-04-22T10:13:12.407Z,26.25
2019-04-22T10:15:33.694Z,27.41
2019-04-22T10:18:04.138Z,27.11
2019-04-22T10:20:32.772Z,27.82
2019-04-22T10:23:05.444Z,27.72
2019-04-22T10:25:36.015Z,27.16
2019-04-22T10:28:08.764Z,27.70
2019-04-22T10:30:41.751Z,28.50
2019-04-22T10:33:03.059Z,29.64
2019-04-22T10:35:15.509Z,30.12
2019-04-22T10:37:40.580Z,30.86
2019-04-22T10:40:13.662Z,31.25
2019-04-22T10:42:43.133Z,31.26
2019-04-22T10:45:12.389Z,31.72
2019-04-22T10:47:40.374Z,31.84
2019-04-22T10:50:10.100Z,30.92
2019-04-22T10:52:37.381Z,30.83
2019-04-22T10:55:05.856Z,31.02
2019-04-22T10:57:33.891Z,33.57
2019-04-22T11:00:01.017Z,33.06
2019-04-22T11:02:29.780Z,33.76
2019-04-22T11:04:59.351Z,33.92
2019-04-22T11:07:36.195Z,33.70
2019-04-22T11:10:09.819Z,33.46
2019-04-22T11:12:29.520Z,32.29
2019-04-22T11:14:55.787Z,32.32
2019-04-22T11:17:24.212Z,30.98
2019-04-22T11:19:53.338Z,31.00
2019-04-22T11:22:24.488Z,33.11
2019-04-22T11:24:50.800Z,32.42
2019-04-22T11:27:18.915Z,31.20
2019-04-22T11:29:47.952Z,30.73
2019-04-22T11:32:16.115Z,30.98
2019-04-22T11:34:43.239Z,30.45
2019-04-22T11:37:10.540Z,29.95
2019-04-22T11:39:38.679Z,31.09
2019-04-22T11:42:05.871Z,31.03
2019-04-22T11:44:35.309Z,30.91
2019-04-22T11:47:09.532Z,31.39
2019-04-22T11:49:36.719Z,32.48
2019-04-22T11:52:06.586Z,31.16
2019-04-22T11:54:35.138Z,29.98
2019-04-22T11:57:12.860Z,31.95
2019-04-22T11:59:40.751Z,33.17
2019-04-22T12:02:09.004Z,33.65
2019-04-22T12:04:38.182Z,33.70
2019-04-22T12:07:05.890Z,33.83
2019-04-22T12:09:33.755Z,33.21
2019-04-22T12:12:00.930Z,32.70
2019-04-22T12:14:28.010Z,32.81
2019-04-22T12:16:55.408Z,33.10
2019-04-22T12:19:27.392Z,35.05
2019-04-22T12:21:55.172Z,34.48
2019-04-22T12:24:23.281Z,34.50
2019-04-22T12:26:52.743Z,33.17
2019-04-22T12:29:22.744Z,34.30
2019-04-22T12:31:51.423Z,33.94
2019-04-22T12:34:19.649Z,34.13
2019-04-22T12:36:48.751Z,33.57
2019-04-22T12:39:17.710Z,34.08
2019-04-22T12:41:46.459Z,35.18
2019-04-22T12:44:14.995Z,35.59
2019-04-22T12:46:48.103Z,33.37
2019-04-22T12:49:18.178Z,35.30
2019-04-22T12:51:47.383Z,37.77
2019-04-22T12:54:17.188Z,37.35
2019-04-22T12:56:48.068Z,35.59
2019-04-22T12:59:17.579Z,36.24
2019-04-22T13:01:47.265Z,35.62
2019-04-22T13:04:19.502Z,34.74
2019-04-22T13:06:46.096Z,36.72
2019-04-22T13:09:14.550Z,37.98
2019-04-22T13:11:44.577Z,36.78
2019-04-22T13:14:12.781Z,36.89
2019-04-22T13:16:40.868Z,37.18
2019-04-22T13:19:12.831Z,34.87
2019-04-22T13:21:38.525Z,35.35
2019-04-22T13:24:07.092Z,34.56
2019-04-22T13:26:35.867Z,33.26
2019-04-22T13:29:03.355Z,35.33
2019-04-22T13:31:30.975Z,36.27
2019-04-22T13:34:13.267Z,36.04
2019-04-22T13:36:40.082Z,36.00
2019-04-22T13:39:08.945Z,36.71
2019-04-22T13:41:46.328Z,35.25
2019-04-22T13:44:07.071Z,34.86
2019-04-22T13:46:35.591Z,34.09
2019-04-22T13:49:38.266Z,32.49
2019-04-22T13:52:15.260Z,32.63
2019-04-22T13:56:51.856Z,33.81
2019-04-22T13:59:15.100Z,33.02
2019-04-22T14:02:00.818Z,33.38
2019-04-22T14:04:32.655Z,32.46
2019-04-22T14:07:00.845Z,30.34
2019-04-22T14:09:33.910Z,29.68
2019-04-22T14:12:07.360Z,29.55
2019-04-22T14:14:39.321Z,30.52
2019-04-22T14:17:09.021Z,30.15
2019-04-22T14:19:39.202Z,30.75
2019-04-22T14:22:09.604Z,29.68
2019-04-22T14:24:40.499Z,29.25
2019-04-22T14:27:22.365Z,30.64
2019-04-22T14:29:39.805Z,30.63
2019-04-22T14:34:39.007Z,32.46
2019-04-22T14:37:14.130Z,33.26
2019-04-22T14:39:41.980Z,33.91
2019-04-22T14:42:28.278Z,32.49
2019-04-22T14:44:03.823Z,31.92
2019-04-22T14:47:34.610Z,31.99
2019-04-22T14:50:07.998Z,32.50
2019-04-22T14:52:33.305Z,33.87
2019-04-22T14:54:53.078Z,33.11
2019-04-22T14:57:12.964Z,33.33
2019-04-22T14:59:46.189Z,34.05
2019-04-22T15:02:14.073Z,33.48
2019-04-22T15:04:41.572Z,34.31
2019-04-22T15:07:16.924Z,34.46
2019-04-22T15:09:46.231Z,34.28
2019-04-22T15:12:20.549Z,35.12
2019-04-22T15:14:43.610Z,34.99
2019-04-22T15:17:33.391Z,33.68
2019-04-22T15:20:16.049Z,34.73
2019-04-22T15:22:44.321Z,35.32
2019-04-22T15:25:42.049Z,34.18
2019-04-22T15:28:19.601Z,33.82
2019-04-22T15:30:51.171Z,32.59
2019-04-22T15:33:19.413Z,32.03
2019-04-22T15:35:47.237Z,30.35
2019-04-22T15:38:17.744Z,29.34
2019-04-22T15:40:46.949Z,29.32
2019-04-22T15:43:14.970Z,30.02
2019-04-22T15:45:44.186Z,31.27
2019-04-22T15:48:14.806Z,31.93
2019-04-22T15:50:42.549Z,31.83
2019-04-22T15:53:11.733Z,31.95
2019-04-22T15:55:39.025Z,31.37
2019-04-22T15:58:07.959Z,29.82
2019-04-22T16:00:51.046Z,28.96
2019-04-22T16:03:08.381Z,27.97
2019-04-22T16:05:34.180Z,27.47
2019-04-22T16:08:03.565Z,27.05
2019-04-22T16:10:31.212Z,27.54
2019-04-22T16:13:07.459Z,29.26
2019-04-22T16:15:28.797Z,29.38
2019-04-22T16:17:56.054Z,29.24
2019-04-22T16:20:23.328Z,29.02
2019-04-22T16:23:09.610Z,29.84
2019-04-22T16:26:03.451Z,30.52
2019-04-22T16:28:31.373Z,30.22
2019-04-22T16:30:59.700Z,29.38
2019-04-22T16:33:27.747Z,28.93
2019-04-22T16:35:55.098Z,29.52
2019-04-22T16:38:24.599Z,29.25
2019-04-22T16:40:52.731Z,28.97
2019-04-22T16:43:20.443Z,29.12
2019-04-22T16:45:50.034Z,28.59
2019-04-22T16:48:19.857Z,27.52
2019-04-22T16:50:50.645Z,26.95
2019-04-22T16:53:20.678Z,25.95
2019-04-22T16:55:50.809Z,25.57
2019-04-22T16:58:18.916Z,25.17
2019-04-22T17:00:49.629Z,24.99
2019-04-22T17:03:52.408Z,24.94
2019-04-22T17:06:29.923Z,24.75
2019-04-22T17:08:57.343Z,24.45
2019-04-22T17:11:27.531Z,24.28
2019-04-22T17:13:55.164Z,24.19
2019-04-22T17:16:24.194Z,24.03
2019-04-22T17:18:54.217Z,23.93
2019-04-22T17:21:21.803Z,23.89
2019-04-22T17:23:49.865Z,23.83
2019-04-22T17:26:18.721Z,23.83
2019-04-22T17:28:46.290Z,23.76
2019-04-22T17:31:13.670Z,23.64
2019-04-22T17:33:41.197Z,23.64
2019-04-22T17:36:09.328Z,23.55
2019-04-22T17:38:48.947Z,23.46
2019-04-22T17:41:20.731Z,23.34
2019-04-22T17:43:58.865Z,23.22
2019-04-22T17:46:32.290Z,23.13
2019-04-22T17:49:16.704Z,23.07
2019-04-22T17:52:06.166Z,22.96
2019-04-22T17:54:34.436Z,22.86
2019-04-22T17:57:02.099Z,22.83
2019-04-22T17:59:35.951Z,22.84
2019-04-22T18:01:59.645Z,22.78
2019-04-22T18:04:12.742Z,22.74
2019-04-22T18:07:02.912Z,22.67
2019-04-22T18:09:53.714Z,22.58
2019-04-22T18:12:04.870Z,22.66
2019-04-22T18:14:41.696Z,22.60
2019-04-22T18:17:05.796Z,22.50
2019-04-22T18:19:29.471Z,22.38
2019-04-22T18:21:51.625Z,22.18
2019-04-22T18:24:19.981Z,22.02
2019-04-22T18:27:18.953Z,21.89
2019-04-22T18:29:28.093Z,21.73
2019-04-22T18:31:51.175Z,21.67
2019-04-22T18:34:25.537Z,21.46
2019-04-22T18:37:07.712Z,21.31
2019-04-22T18:39:42.520Z,21.16
2019-04-22T18:42:05.920Z,21.07
2019-04-22T18:44:39.849Z,21.00
2019-04-22T18:47:07.351Z,20.92
2019-04-22T18:49:37.352Z,20.89
2019-04-22T18:52:38.000Z,20.78
2019-04-22T18:55:17.933Z,20.68
2019-04-22T18:58:16.615Z,20.71
2019-04-22T19:00:36.230Z,20.58
2019-04-22T19:03:13.512Z,20.56
2019-04-22T19:06:02.601Z,20.50
2019-04-22T19:08:28.826Z,20.39
2019-04-22T19:11:02.602Z,20.32
2019-04-22T19:16:09.752Z,20.17
2019-04-22T19:18:37.921Z,20.19
2019-04-22T19:21:02.801Z,20.17
2019-04-22T19:23:28.486Z,20.14
2019-04-22T19:25:59.096Z,20.10
2019-04-22T19:28:42.569Z,20.12
2019-04-22T19:31:13.515Z,19.98
2019-04-22T19:33:40.679Z,20.01
2019-04-22T19:36:10.756Z,20.00
2019-04-22T19:38:30.036Z,20.00
2019-04-22T19:41:19.761Z,19.92
2019-04-22T19:43:46.497Z,19.91
2019-04-22T19:46:13.022Z,19.88
2019-04-22T19:48:45.498Z,19.83
2019-04-22T19:51:24.249Z,19.66
2019-04-22T19:53:47.399Z,19.63
2019-04-22T19:56:11.552Z,19.41
2019-04-22T19:58:42.645Z,19.28
2019-04-22T20:01:44.108Z,19.27
2019-04-22T20:04:32.641Z,19.20
2019-04-22T20:07:05.144Z,18.95
2019-04-22T20:09:35.447Z,18.76
2019-04-22T20:12:04.534Z,18.81
2019-04-22T20:14:34.991Z,18.74
2019-04-22T20:17:02.445Z,18.61
2019-04-22T20:19:41.470Z,18.55
2019-04-22T20:22:03.000Z,18.50
2019-04-22T20:24:23.840Z,18.50
2019-04-22T20:27:12.378Z,18.52
2019-04-22T20:29:37.670Z,18.45
2019-04-22T20:32:05.700Z,18.43
2019-04-22T20:34:37.973Z,18.36
2019-04-22T20:37:10.449Z,18.44
2019-04-22T20:39:40.951Z,18.50
2019-04-22T20:42:21.305Z,18.36
2019-04-22T20:44:33.517Z,18.47
2019-04-22T20:46:55.758Z,18.41
2019-04-22T20:49:31.063Z,18.25
2019-04-22T20:52:21.634Z,18.15
2019-04-22T20:54:32.644Z,18.10
2019-04-22T20:56:57.721Z,18.03
2019-04-22T20:59:28.861Z,17.94
2019-04-22T21:01:57.974Z,17.89
2019-04-22T21:04:33.535Z,17.82
2019-04-22T21:07:05.100Z,17.70
2019-04-22T21:09:38.294Z,17.61
2019-04-22T21:12:05.133Z,17.54
2019-04-22T21:14:32.458Z,17.43
2019-04-22T21:17:08.041Z,17.41
2019-04-22T21:19:49.739Z,17.36
2019-04-22T21:22:07.952Z,17.37
2019-04-22T21:24:34.995Z,17.31
2019-04-22T21:27:10.319Z,17.27
2019-04-22T21:29:32.149Z,17.21
2019-04-22T21:32:01.094Z,17.11
2019-04-22T21:34:41.391Z,17.07
2019-04-22T21:37:07.635Z,16.93
2019-04-22T21:39:29.024Z,16.89
2019-04-22T21:42:03.380Z,16.85
2019-04-22T21:44:26.149Z,16.89
2019-04-22T21:47:04.426Z,16.86
2019-04-22T21:49:29.620Z,16.85
2019-04-22T21:52:13.490Z,16.78
2019-04-22T21:54:28.273Z,16.73
2019-04-22T21:59:34.675Z,16.56
2019-04-22T22:02:12.375Z,16.49
2019-04-22T22:04:36.363Z,16.42
2019-04-22T22:06:58.932Z,16.42
2019-04-22T22:09:39.941Z,16.35
2019-04-22T22:12:02.441Z,16.40
2019-04-22T22:14:34.844Z,16.41
2019-04-22T22:16:56.110Z,16.33
2019-04-22T22:19:35.946Z,16.29
2019-04-22T22:22:07.849Z,16.30
2019-04-22T22:24:41.586Z,16.20
2019-04-22T22:27:01.441Z,16.16
2019-04-22T22:29:48.054Z,16.09
2019-04-22T22:32:07.932Z,16.05
2019-04-22T22:34:28.061Z,15.97
2019-04-22T22:36:54.404Z,15.91
2019-04-22T22:39:23.692Z,15.89
2019-04-22T22:41:39.731Z,15.86
2019-04-22T22:44:16.398Z,15.82
2019-04-22T22:46:51.494Z,15.85
2019-04-22T22:49:29.902Z,15.77
2019-04-22T22:52:09.780Z,15.77
2019-04-22T22:54:33.110Z,15.71
2019-04-22T22:57:01.974Z,15.59
2019-04-22T22:59:29.937Z,15.61
2019-04-22T23:01:52.626Z,15.44
2019-04-22T23:04:29.488Z,15.51
2019-04-22T23:06:58.248Z,15.49
2019-04-22T23:09:19.559Z,15.41
2019-04-22T23:12:03.307Z,15.47
2019-04-22T23:14:20.856Z,15.39
2019-04-22T23:16:39.785Z,15.32
2019-04-22T23:19:04.392Z,15.31
2019-04-22T23:21:38.816Z,15.23
2019-04-22T23:24:23.411Z,15.13
2019-04-22T23:27:03.221Z,15.06
2019-04-22T23:29:43.050Z,15.07
2019-04-22T23:32:18.540Z,15.08
2019-04-22T23:34:58.737Z,15.02
2019-04-22T23:37:29.016Z,14.92
2019-04-22T23:40:11.780Z,14.97
2019-04-22T23:42:41.768Z,14.98
2019-04-22T23:45:02.030Z,14.94
2019-04-22T23:47:30.060Z,14.90
2019-04-22T23:50:14.060Z,14.80
2019-04-22T23:52:49.003Z,14.77
2019-04-22T23:55:17.769Z,14.82
2019-04-22T23:57:46.974Z,14.80
